<?xml version='1.0' encoding='UTF-8'?><gpx version="1.1" creator="JPX - https://github.com/jenetics/jpx" xmlns="http://www.topografix.com/GPX/1/1"><trk><trkseg><trkpt lat="32.67985113418187" lon="-4.741326744005052"><ele>1478.0</ele><time>2026-04-28T13:23:01.001Z</time></trkpt><trkpt lat="32.679917216469526" lon="-4.741405632615726"><ele>1478.0</ele><time>2026-04-28T13:23:03.001Z</time></trkpt><trkpt lat="32.67994817961911" lon="-4.7415507027745845"><ele>1478.0</ele><time>2026-04-28T13:23:05.001Z</time></trkpt><trkpt lat="32.68000074645549" lon="-4.741625017437419"><ele>1478.0</ele><time>2026-04-28T13:23:06.002Z</time></trkpt><trkpt lat="32.68005388455355" lon="-4.7417070017617915"><ele>1478.0</ele><time>2026-04-28T13:23:07.002Z</time></trkpt><trkpt lat="32.680104188333715" lon="-4.741781333555621"><ele>1478.0</ele><time>2026-04-28T13:23:08.002Z</time></trkpt><trkpt lat="32.68014990676375" lon="-4.74185989319191"><ele>1478.0</ele><time>2026-04-28T13:23:09.002Z</time></trkpt><trkpt lat="32.68018379715659" lon="-4.741943932663195"><ele>1478.0</ele><time>2026-04-28T13:23:10.002Z</time></trkpt><trkpt lat="32.68022410059547" lon="-4.742022103011955"><ele>1478.0</ele><time>2026-04-28T13:23:11.002Z</time></trkpt><trkpt lat="32.68026197200986" lon="-4.742098303265359"><ele>1478.0</ele><time>2026-04-28T13:23:12.002Z</time></trkpt><trkpt lat="32.68030138288067" lon="-4.742170070173313"><ele>1478.0</ele><time>2026-04-28T13:23:13.002Z</time></trkpt><trkpt lat="32.68033819560425" lon="-4.7422484307056925"><ele>1478.4285714285716</ele><time>2026-04-28T13:23:14.002Z</time></trkpt><trkpt lat="32.680377199254956" lon="-4.742317571660381"><ele>1478.857142857143</ele><time>2026-04-28T13:23:15.002Z</time></trkpt><trkpt lat="32.680431870145824" lon="-4.7423790293041925"><ele>1479.2857142857142</ele><time>2026-04-28T13:23:16.002Z</time></trkpt><trkpt lat="32.680469455953414" lon="-4.742444798776058"><ele>1479.7142857142858</ele><time>2026-04-28T13:23:17.002Z</time></trkpt><trkpt lat="32.68050182195513" lon="-4.7425205498033725"><ele>1480.142857142857</ele><time>2026-04-28T13:23:18.002Z</time></trkpt><trkpt lat="32.68055571351134" lon="-4.74259211007234"><ele>1480.5714285714287</ele><time>2026-04-28T13:23:19.002Z</time></trkpt><trkpt lat="32.6805929743338" lon="-4.742670530439644"><ele>1481.0</ele><time>2026-04-28T13:23:20.002Z</time></trkpt><trkpt lat="32.680638109802764" lon="-4.742747297529071"><ele>1481.0</ele><time>2026-04-28T13:23:21.002Z</time></trkpt><trkpt lat="32.6806790596903" lon="-4.742837943920614"><ele>1481.0</ele><time>2026-04-28T13:23:22.002Z</time></trkpt><trkpt lat="32.68072394996535" lon="-4.742926336377523"><ele>1481.0</ele><time>2026-04-28T13:23:23.002Z</time></trkpt><trkpt lat="32.68076678731347" lon="-4.743004281657313"><ele>1481.0</ele><time>2026-04-28T13:23:24.002Z</time></trkpt><trkpt lat="32.68081801692883" lon="-4.743073185367758"><ele>1481.0</ele><time>2026-04-28T13:23:25.002Z</time></trkpt><trkpt lat="32.68086811146832" lon="-4.743125138662186"><ele>1481.0</ele><time>2026-04-28T13:23:26.002Z</time></trkpt><trkpt lat="32.68093018747352" lon="-4.7431518514457345"><ele>1481.0</ele><time>2026-04-28T13:23:27.002Z</time></trkpt><trkpt lat="32.68099392756777" lon="-4.743098179707959"><ele>1481.0</ele><time>2026-04-28T13:23:28.002Z</time></trkpt><trkpt lat="32.68111376165887" lon="-4.743104040793363"><ele>1481.0</ele><time>2026-04-28T13:23:30.002Z</time></trkpt><trkpt lat="32.68119373434934" lon="-4.74310795223959"><ele>1481.0</ele><time>2026-04-28T13:23:32.002Z</time></trkpt><trkpt lat="32.68129740283262" lon="-4.743130512555272"><ele>1481.0</ele><time>2026-04-28T13:23:34.002Z</time></trkpt><trkpt lat="32.681370509314604" lon="-4.743211833278928"><ele>1480.4</ele><time>2026-04-28T13:23:37.002Z</time></trkpt><trkpt lat="32.681383335193296" lon="-4.743367223671685"><ele>1479.8</ele><time>2026-04-28T13:23:39.002Z</time></trkpt><trkpt lat="32.68140047459201" lon="-4.743453631196508"><ele>1479.2</ele><time>2026-04-28T13:23:40.002Z</time></trkpt><trkpt lat="32.68142473591067" lon="-4.743532496806617"><ele>1478.6000000000001</ele><time>2026-04-28T13:23:41.002Z</time></trkpt><trkpt lat="32.68145507448079" lon="-4.743626388334535"><ele>1478.0</ele><time>2026-04-28T13:23:42.002Z</time></trkpt><trkpt lat="32.68146536573144" lon="-4.743734375611834"><ele>1477.3333333333335</ele><time>2026-04-28T13:23:43.002Z</time></trkpt><trkpt lat="32.681489906475974" lon="-4.743841826586046"><ele>1476.6666666666667</ele><time>2026-04-28T13:23:44.001Z</time></trkpt><trkpt lat="32.68151295998715" lon="-4.743942765888236"><ele>1476.0</ele><time>2026-04-28T13:23:45.001Z</time></trkpt><trkpt lat="32.68154973237311" lon="-4.744031229242908"><ele>1475.3333333333333</ele><time>2026-04-28T13:23:46.001Z</time></trkpt><trkpt lat="32.6815508934887" lon="-4.744118396378645"><ele>1474.6666666666665</ele><time>2026-04-28T13:23:47.001Z</time></trkpt><trkpt lat="32.68154869871778" lon="-4.744197207717102"><ele>1474.0</ele><time>2026-04-28T13:23:48.001Z</time></trkpt><trkpt lat="32.68154109869912" lon="-4.744276418942834"><ele>1473.0</ele><time>2026-04-28T13:23:49.001Z</time></trkpt><trkpt lat="32.681533386841664" lon="-4.744419475146952"><ele>1472.0</ele><time>2026-04-28T13:23:51.001Z</time></trkpt><trkpt lat="32.68152480440584" lon="-4.744564559787486"><ele>1471.0</ele><time>2026-04-28T13:23:53.001Z</time></trkpt><trkpt lat="32.68151953570038" lon="-4.744713576881738"><ele>1470.0</ele><time>2026-04-28T13:23:55.001Z</time></trkpt><trkpt lat="32.68151950892811" lon="-4.744796675312239"><ele>1469.0</ele><time>2026-04-28T13:23:56.001Z</time></trkpt><trkpt lat="32.681518093550466" lon="-4.744889975412108"><ele>1469.0</ele><time>2026-04-28T13:23:57.001Z</time></trkpt><trkpt lat="32.68151261832905" lon="-4.744978202959642"><ele>1469.0</ele><time>2026-04-28T13:23:58.001Z</time></trkpt><trkpt lat="32.68154887497332" lon="-4.745063228023211"><ele>1469.0</ele><time>2026-04-28T13:23:59.001Z</time></trkpt><trkpt lat="32.68157031673813" lon="-4.74518032255379"><ele>1469.0</ele><time>2026-04-28T13:24:00.001Z</time></trkpt><trkpt lat="32.6816011310565" lon="-4.745272165605685"><ele>1469.0</ele><time>2026-04-28T13:24:01.001Z</time></trkpt><trkpt lat="32.681648016154526" lon="-4.745368489862837"><ele>1469.0</ele><time>2026-04-28T13:24:02.001Z</time></trkpt><trkpt lat="32.681687970660825" lon="-4.745477144134657"><ele>1467.25</ele><time>2026-04-28T13:24:03.001Z</time></trkpt><trkpt lat="32.68172329258702" lon="-4.74560724656442"><ele>1465.5</ele><time>2026-04-28T13:24:04.001Z</time></trkpt><trkpt lat="32.681743061158556" lon="-4.745743622002308"><ele>1463.75</ele><time>2026-04-28T13:24:05.001Z</time></trkpt><trkpt lat="32.68175456156544" lon="-4.745876968477324"><ele>1462.0</ele><time>2026-04-28T13:24:06.001Z</time></trkpt><trkpt lat="32.6817633954334" lon="-4.74601198889154"><ele>1461.0</ele><time>2026-04-28T13:24:07.001Z</time></trkpt><trkpt lat="32.68177368722025" lon="-4.746147437527979"><ele>1460.0</ele><time>2026-04-28T13:24:08.001Z</time></trkpt><trkpt lat="32.68179037480192" lon="-4.746289724861374"><ele>1459.0</ele><time>2026-04-28T13:24:09.001Z</time></trkpt><trkpt lat="32.681813304657055" lon="-4.7464261380694115"><ele>1458.0</ele><time>2026-04-28T13:24:10.001Z</time></trkpt><trkpt lat="32.68184157075785" lon="-4.746563570813794"><ele>1458.0</ele><time>2026-04-28T13:24:11.001Z</time></trkpt><trkpt lat="32.681865668857704" lon="-4.7467063966101835"><ele>1458.0</ele><time>2026-04-28T13:24:12.001Z</time></trkpt><trkpt lat="32.681893218195434" lon="-4.746848335106801"><ele>1458.0</ele><time>2026-04-28T13:24:13.001Z</time></trkpt><trkpt lat="32.68191944428396" lon="-4.746991862274941"><ele>1458.0</ele><time>2026-04-28T13:24:14.001Z</time></trkpt><trkpt lat="32.681950017990445" lon="-4.747130936168593"><ele>1458.0</ele><time>2026-04-28T13:24:15.001Z</time></trkpt><trkpt lat="32.681966029934124" lon="-4.747268306830889"><ele>1458.0</ele><time>2026-04-28T13:24:16.001Z</time></trkpt><trkpt lat="32.68198971282602" lon="-4.747402904402466"><ele>1458.0</ele><time>2026-04-28T13:24:17.001Z</time></trkpt><trkpt lat="32.68201260514374" lon="-4.74753266817188"><ele>1458.0</ele><time>2026-04-28T13:24:18.001Z</time></trkpt><trkpt lat="32.682052235492606" lon="-4.747658114658537"><ele>1458.4</ele><time>2026-04-28T13:24:19.001Z</time></trkpt><trkpt lat="32.68208968684974" lon="-4.747777616464876"><ele>1458.8000000000002</ele><time>2026-04-28T13:24:20.001Z</time></trkpt><trkpt lat="32.68213075483808" lon="-4.747889048037764"><ele>1459.2</ele><time>2026-04-28T13:24:21.001Z</time></trkpt><trkpt lat="32.682167616485685" lon="-4.7479938717069405"><ele>1459.6</ele><time>2026-04-28T13:24:22.001Z</time></trkpt><trkpt lat="32.682198866466805" lon="-4.748095047908586"><ele>1460.0</ele><time>2026-04-28T13:24:23.001Z</time></trkpt><trkpt lat="32.68221778905814" lon="-4.748190714315369"><ele>1460.0</ele><time>2026-04-28T13:24:24.001Z</time></trkpt><trkpt lat="32.68222358678679" lon="-4.748297900621515"><ele>1460.0</ele><time>2026-04-28T13:24:25.001Z</time></trkpt><trkpt lat="32.682202963281" lon="-4.748388632458665"><ele>1460.0</ele><time>2026-04-28T13:24:26.001Z</time></trkpt><trkpt lat="32.68218878674918" lon="-4.748506007506455"><ele>1460.0</ele><time>2026-04-28T13:24:27.001Z</time></trkpt><trkpt lat="32.68219130616116" lon="-4.74862055787793"><ele>1460.0</ele><time>2026-04-28T13:24:28.001Z</time></trkpt><trkpt lat="32.682205282301055" lon="-4.748733980249936"><ele>1460.4</ele><time>2026-04-28T13:24:29.001Z</time></trkpt><trkpt lat="32.68223920869285" lon="-4.74885039865767"><ele>1460.8</ele><time>2026-04-28T13:24:30.001Z</time></trkpt><trkpt lat="32.68227893298474" lon="-4.748966797744267"><ele>1461.1999999999998</ele><time>2026-04-28T13:24:31.001Z</time></trkpt><trkpt lat="32.68229287679293" lon="-4.7490850113965255"><ele>1461.6</ele><time>2026-04-28T13:24:32.001Z</time></trkpt><trkpt lat="32.682285648184155" lon="-4.749174891303678"><ele>1462.0</ele><time>2026-04-28T13:24:33.001Z</time></trkpt><trkpt lat="32.68225514716737" lon="-4.749270421507915"><ele>1462.0</ele><time>2026-04-28T13:24:34.001Z</time></trkpt><trkpt lat="32.6822374770966" lon="-4.7493453370505545"><ele>1462.0</ele><time>2026-04-28T13:24:35.001Z</time></trkpt><trkpt lat="32.68217325488942" lon="-4.749472557929403"><ele>1462.0</ele><time>2026-04-28T13:24:37.001Z</time></trkpt><trkpt lat="32.68212949780088" lon="-4.749527561610286"><ele>1462.0</ele><time>2026-04-28T13:24:38.001Z</time></trkpt><trkpt lat="32.682070505777624" lon="-4.749592480884279"><ele>1462.0</ele><time>2026-04-28T13:24:40.001Z</time></trkpt><trkpt lat="32.68202503103668" lon="-4.749658165008983"><ele>1462.0</ele><time>2026-04-28T13:24:43.001Z</time></trkpt><trkpt lat="32.68196345517147" lon="-4.749759235848438"><ele>1461.8333333333333</ele><time>2026-04-28T13:24:45.001Z</time></trkpt><trkpt lat="32.68194007463087" lon="-4.749840146497136"><ele>1461.6666666666665</ele><time>2026-04-28T13:24:46.001Z</time></trkpt><trkpt lat="32.68190223746664" lon="-4.749917826407521"><ele>1461.5</ele><time>2026-04-28T13:24:47.001Z</time></trkpt><trkpt lat="32.681859645319385" lon="-4.750005400452515"><ele>1461.3333333333333</ele><time>2026-04-28T13:24:48.001Z</time></trkpt><trkpt lat="32.6818209923547" lon="-4.750093883287488"><ele>1461.1666666666667</ele><time>2026-04-28T13:24:49.001Z</time></trkpt><trkpt lat="32.6817934852937" lon="-4.750197495043497"><ele>1461.0</ele><time>2026-04-28T13:24:50.001Z</time></trkpt><trkpt lat="32.68176482024054" lon="-4.750303208504409"><ele>1461.6</ele><time>2026-04-28T13:24:51.001Z</time></trkpt><trkpt lat="32.681730029741296" lon="-4.750399583740777"><ele>1462.1999999999998</ele><time>2026-04-28T13:24:52.001Z</time></trkpt><trkpt lat="32.68168693858661" lon="-4.750475608936077"><ele>1462.8000000000002</ele><time>2026-04-28T13:24:53.001Z</time></trkpt><trkpt lat="32.681649943559506" lon="-4.750552844084024"><ele>1463.4</ele><time>2026-04-28T13:24:54.001Z</time></trkpt><trkpt lat="32.68160423540278" lon="-4.750681697793365"><ele>1464.0</ele><time>2026-04-28T13:24:56.001Z</time></trkpt><trkpt lat="32.681563443025745" lon="-4.750779787401958"><ele>1464.0</ele><time>2026-04-28T13:24:58.001Z</time></trkpt><trkpt lat="32.68155630146325" lon="-4.750887248770123"><ele>1464.0</ele><time>2026-04-28T13:25:00.001Z</time></trkpt><trkpt lat="32.681580369207566" lon="-4.751011608195128"><ele>1464.0</ele><time>2026-04-28T13:25:02.001Z</time></trkpt><trkpt lat="32.68159583824821" lon="-4.7511656710797086"><ele>1464.0</ele><time>2026-04-28T13:25:04.001Z</time></trkpt><trkpt lat="32.68161351611139" lon="-4.751244273775619"><ele>1464.0</ele><time>2026-04-28T13:25:05.001Z</time></trkpt><trkpt lat="32.68163249249498" lon="-4.75133145980582"><ele>1463.8333333333333</ele><time>2026-04-28T13:25:06.001Z</time></trkpt><trkpt lat="32.68166278736349" lon="-4.751419749549449"><ele>1463.6666666666667</ele><time>2026-04-28T13:25:07.001Z</time></trkpt><trkpt lat="32.68169897089236" lon="-4.751505229750538"><ele>1463.5</ele><time>2026-04-28T13:25:08.001Z</time></trkpt><trkpt lat="32.681743642161756" lon="-4.751589690320863"><ele>1463.3333333333335</ele><time>2026-04-28T13:25:09.001Z</time></trkpt><trkpt lat="32.68181106719198" lon="-4.751653955106059"><ele>1463.1666666666667</ele><time>2026-04-28T13:25:10.001Z</time></trkpt><trkpt lat="32.6818736429903" lon="-4.7517320597467725"><ele>1463.0</ele><time>2026-04-28T13:25:11.001Z</time></trkpt><trkpt lat="32.68194056753427" lon="-4.751815592297065"><ele>1462.8333333333335</ele><time>2026-04-28T13:25:12.001Z</time></trkpt><trkpt lat="32.68200426517057" lon="-4.751895097256272"><ele>1462.6666666666667</ele><time>2026-04-28T13:25:13.001Z</time></trkpt><trkpt lat="32.682069012927414" lon="-4.751975912351193"><ele>1462.5</ele><time>2026-04-28T13:25:14.001Z</time></trkpt><trkpt lat="32.682145093541365" lon="-4.752040523373506"><ele>1462.3333333333333</ele><time>2026-04-28T13:25:15.001Z</time></trkpt><trkpt lat="32.68221651612307" lon="-4.7521065459018415"><ele>1462.1666666666665</ele><time>2026-04-28T13:25:16.001Z</time></trkpt><trkpt lat="32.68227642056588" lon="-4.752161921304401"><ele>1462.0</ele><time>2026-04-28T13:25:17.002Z</time></trkpt><trkpt lat="32.68232948114472" lon="-4.752211085720297"><ele>1462.0</ele><time>2026-04-28T13:25:18.002Z</time></trkpt><trkpt lat="32.68238312289432" lon="-4.752266792039991"><ele>1462.0</ele><time>2026-04-28T13:25:20.002Z</time></trkpt><trkpt lat="32.68242219519387" lon="-4.752337657266389"><ele>1462.0</ele><time>2026-04-28T13:25:22.002Z</time></trkpt><trkpt lat="32.68245859941175" lon="-4.752478349900995"><ele>1462.0</ele><time>2026-04-28T13:25:24.002Z</time></trkpt><trkpt lat="32.68247644175944" lon="-4.752553929027075"><ele>1462.0</ele><time>2026-04-28T13:25:25.002Z</time></trkpt><trkpt lat="32.682498752228604" lon="-4.752634470093794"><ele>1462.0</ele><time>2026-04-28T13:25:26.002Z</time></trkpt><trkpt lat="32.68252589762507" lon="-4.752734774805091"><ele>1462.8</ele><time>2026-04-28T13:25:27.002Z</time></trkpt><trkpt lat="32.68254047895668" lon="-4.75284156411016"><ele>1463.6</ele><time>2026-04-28T13:25:28.002Z</time></trkpt><trkpt lat="32.68255622950505" lon="-4.752959495773352"><ele>1464.3999999999999</ele><time>2026-04-28T13:25:29.002Z</time></trkpt><trkpt lat="32.6825718101963" lon="-4.753088765329483"><ele>1465.1999999999998</ele><time>2026-04-28T13:25:30.002Z</time></trkpt><trkpt lat="32.68258754488199" lon="-4.7532255509621875"><ele>1466.0</ele><time>2026-04-28T13:25:31.002Z</time></trkpt><trkpt lat="32.68260176815169" lon="-4.753353710547904"><ele>1466.0</ele><time>2026-04-28T13:25:32.002Z</time></trkpt><trkpt lat="32.6826204650324" lon="-4.753485307265783"><ele>1466.0</ele><time>2026-04-28T13:25:33.002Z</time></trkpt><trkpt lat="32.68265054514219" lon="-4.753618967803821"><ele>1466.0</ele><time>2026-04-28T13:25:34.002Z</time></trkpt><trkpt lat="32.682691015808075" lon="-4.753747950042993"><ele>1466.0</ele><time>2026-04-28T13:25:35.002Z</time></trkpt><trkpt lat="32.68274247619701" lon="-4.753864776760189"><ele>1466.3333333333335</ele><time>2026-04-28T13:25:36.002Z</time></trkpt><trkpt lat="32.68277491120475" lon="-4.753961538034621"><ele>1466.6666666666667</ele><time>2026-04-28T13:25:37.002Z</time></trkpt><trkpt lat="32.68278225448099" lon="-4.75404238427519"><ele>1467.0</ele><time>2026-04-28T13:25:38.002Z</time></trkpt><trkpt lat="32.68278496293369" lon="-4.754121777875796"><ele>1467.3333333333333</ele><time>2026-04-28T13:25:39.002Z</time></trkpt><trkpt lat="32.682786835008635" lon="-4.7542069765278665"><ele>1467.6666666666665</ele><time>2026-04-28T13:25:40.002Z</time></trkpt><trkpt lat="32.68278833130541" lon="-4.754286098743501"><ele>1468.0</ele><time>2026-04-28T13:25:41.002Z</time></trkpt><trkpt lat="32.682731995600214" lon="-4.754423182129353"><ele>1468.0</ele><time>2026-04-28T13:25:43.002Z</time></trkpt><trkpt lat="32.682695973744906" lon="-4.754510411472526"><ele>1468.0</ele><time>2026-04-28T13:25:44.002Z</time></trkpt><trkpt lat="32.682663113226965" lon="-4.754606588215491"><ele>1468.0</ele><time>2026-04-28T13:25:45.002Z</time></trkpt><trkpt lat="32.682633385482156" lon="-4.754715941582877"><ele>1468.0</ele><time>2026-04-28T13:25:46.002Z</time></trkpt><trkpt lat="32.68260517468812" lon="-4.754824885950289"><ele>1468.0</ele><time>2026-04-28T13:25:47.002Z</time></trkpt><trkpt lat="32.68257210433321" lon="-4.754944028934557"><ele>1468.0</ele><time>2026-04-28T13:25:48.002Z</time></trkpt><trkpt lat="32.68253838511583" lon="-4.755066163115005"><ele>1468.0</ele><time>2026-04-28T13:25:49.002Z</time></trkpt><trkpt lat="32.68249684007236" lon="-4.755185615964375"><ele>1468.0</ele><time>2026-04-28T13:25:50Z</time></trkpt><trkpt lat="32.68246350439767" lon="-4.755309109285108"><ele>1468.0</ele><time>2026-04-28T13:25:50.999Z</time></trkpt><trkpt lat="32.68243076789748" lon="-4.7554358239458985"><ele>1468.0</ele><time>2026-04-28T13:25:52Z</time></trkpt><trkpt lat="32.68239692349995" lon="-4.755569508334232"><ele>1468.25</ele><time>2026-04-28T13:25:52.999Z</time></trkpt><trkpt lat="32.68236037718338" lon="-4.755703123713196"><ele>1468.5</ele><time>2026-04-28T13:25:53.999Z</time></trkpt><trkpt lat="32.68232126637416" lon="-4.755835115601323"><ele>1468.75</ele><time>2026-04-28T13:25:55Z</time></trkpt><trkpt lat="32.68228385927056" lon="-4.755965964276037"><ele>1469.0</ele><time>2026-04-28T13:25:56Z</time></trkpt><trkpt lat="32.682253814639935" lon="-4.756089728222262"><ele>1470.0</ele><time>2026-04-28T13:25:57Z</time></trkpt><trkpt lat="32.682223318975716" lon="-4.756201810065872"><ele>1471.0</ele><time>2026-04-28T13:25:58Z</time></trkpt><trkpt lat="32.682205685743824" lon="-4.756317569961388"><ele>1472.0</ele><time>2026-04-28T13:25:59Z</time></trkpt><trkpt lat="32.68218828133796" lon="-4.756431056471686"><ele>1473.0</ele><time>2026-04-28T13:26:00Z</time></trkpt><trkpt lat="32.68217394704788" lon="-4.756546166156031"><ele>1474.0</ele><time>2026-04-28T13:26:01Z</time></trkpt><trkpt lat="32.68216073099197" lon="-4.756662382447153"><ele>1474.0</ele><time>2026-04-28T13:26:02Z</time></trkpt><trkpt lat="32.682146036581365" lon="-4.756780321407212"><ele>1474.0</ele><time>2026-04-28T13:26:03Z</time></trkpt><trkpt lat="32.68213193079327" lon="-4.756898805058683"><ele>1474.0</ele><time>2026-04-28T13:26:04Z</time></trkpt><trkpt lat="32.68211836519349" lon="-4.75702031565714"><ele>1474.0</ele><time>2026-04-28T13:26:05Z</time></trkpt><trkpt lat="32.682098235040506" lon="-4.757140772280375"><ele>1474.0</ele><time>2026-04-28T13:26:06Z</time></trkpt><trkpt lat="32.68208369050534" lon="-4.7572656490096055"><ele>1474.4</ele><time>2026-04-28T13:26:07Z</time></trkpt><trkpt lat="32.682079232111164" lon="-4.757391764485199"><ele>1474.8000000000002</ele><time>2026-04-28T13:26:08Z</time></trkpt><trkpt lat="32.68207790437073" lon="-4.75750366087712"><ele>1475.1999999999998</ele><time>2026-04-28T13:26:09Z</time></trkpt><trkpt lat="32.682072827417684" lon="-4.757610477108683"><ele>1475.6</ele><time>2026-04-28T13:26:10Z</time></trkpt><trkpt lat="32.682070442478924" lon="-4.7577221548851405"><ele>1476.0</ele><time>2026-04-28T13:26:11Z</time></trkpt><trkpt lat="32.68206777021848" lon="-4.757833094462342"><ele>1476.0</ele><time>2026-04-28T13:26:12Z</time></trkpt><trkpt lat="32.68206243260034" lon="-4.757945834691252"><ele>1476.0</ele><time>2026-04-28T13:26:13Z</time></trkpt><trkpt lat="32.68205246622126" lon="-4.758059454479277"><ele>1476.0</ele><time>2026-04-28T13:26:14Z</time></trkpt><trkpt lat="32.68204050915256" lon="-4.758181072345691"><ele>1476.0</ele><time>2026-04-28T13:26:15Z</time></trkpt><trkpt lat="32.682036299664865" lon="-4.758307741533112"><ele>1476.0</ele><time>2026-04-28T13:26:16Z</time></trkpt><trkpt lat="32.68203675380811" lon="-4.75842595147288"><ele>1476.0</ele><time>2026-04-28T13:26:17Z</time></trkpt><trkpt lat="32.682037071287745" lon="-4.7585166647649535"><ele>1476.0</ele><time>2026-04-28T13:26:18Z</time></trkpt><trkpt lat="32.682037048818216" lon="-4.758620263849888"><ele>1476.0</ele><time>2026-04-28T13:26:20Z</time></trkpt><trkpt lat="32.68203361221622" lon="-4.758696008697717"><ele>1476.0</ele><time>2026-04-28T13:26:22Z</time></trkpt><trkpt lat="32.68203899903382" lon="-4.758806911660524"><ele>1476.0</ele><time>2026-04-28T13:26:24Z</time></trkpt><trkpt lat="32.68205378895781" lon="-4.758932023238859"><ele>1476.0</ele><time>2026-04-28T13:26:26Z</time></trkpt><trkpt lat="32.68216689952966" lon="-4.758954170398062"><ele>1476.0</ele><time>2026-04-28T13:26:29Z</time></trkpt><trkpt lat="32.68223389586668" lon="-4.758941838812702"><ele>1476.0</ele><time>2026-04-28T13:26:30Z</time></trkpt><trkpt lat="32.68229300668508" lon="-4.758901852935232"><ele>1476.0</ele><time>2026-04-28T13:26:31Z</time></trkpt><trkpt lat="32.68236471119528" lon="-4.758864609882079"><ele>1476.0</ele><time>2026-04-28T13:26:32Z</time></trkpt><trkpt lat="32.6824340499652" lon="-4.758826756143805"><ele>1476.0</ele><time>2026-04-28T13:26:33Z</time></trkpt><trkpt lat="32.68251547652519" lon="-4.758791568577799"><ele>1476.0</ele><time>2026-04-28T13:26:34Z</time></trkpt><trkpt lat="32.68260481880325" lon="-4.758760045201056"><ele>1476.0</ele><time>2026-04-28T13:26:35Z</time></trkpt><trkpt lat="32.68269852955882" lon="-4.758726847456124"><ele>1476.0</ele><time>2026-04-28T13:26:36Z</time></trkpt><trkpt lat="32.682789414698284" lon="-4.758693503315942"><ele>1476.0</ele><time>2026-04-28T13:26:37Z</time></trkpt><trkpt lat="32.68287190934852" lon="-4.758663256759566"><ele>1476.0</ele><time>2026-04-28T13:26:38Z</time></trkpt><trkpt lat="32.6829913404039" lon="-4.758652731732874"><ele>1476.0</ele><time>2026-04-28T13:26:40Z</time></trkpt><trkpt lat="32.6830530625319" lon="-4.758684778885426"><ele>1476.6</ele><time>2026-04-28T13:26:41Z</time></trkpt><trkpt lat="32.683116005080024" lon="-4.758744849695639"><ele>1477.1999999999998</ele><time>2026-04-28T13:26:42Z</time></trkpt><trkpt lat="32.68318128448955" lon="-4.758821401404126"><ele>1477.8000000000002</ele><time>2026-04-28T13:26:43Z</time></trkpt><trkpt lat="32.68325327048495" lon="-4.7589026542547215"><ele>1478.4</ele><time>2026-04-28T13:26:44Z</time></trkpt><trkpt lat="32.683335214717886" lon="-4.758989491742588"><ele>1479.0</ele><time>2026-04-28T13:26:45Z</time></trkpt><trkpt lat="32.683421233695285" lon="-4.759079296305107"><ele>1479.0</ele><time>2026-04-28T13:26:46Z</time></trkpt><trkpt lat="32.6835095198589" lon="-4.7591673838132555"><ele>1479.0</ele><time>2026-04-28T13:26:47Z</time></trkpt><trkpt lat="32.683608836116925" lon="-4.759258478405701"><ele>1479.0</ele><time>2026-04-28T13:26:48.001Z</time></trkpt><trkpt lat="32.68371138799465" lon="-4.759352959480362"><ele>1479.0</ele><time>2026-04-28T13:26:49.001Z</time></trkpt><trkpt lat="32.68381419242129" lon="-4.759451915269588"><ele>1478.25</ele><time>2026-04-28T13:26:50.001Z</time></trkpt><trkpt lat="32.68391755169521" lon="-4.7595531861173725"><ele>1477.5</ele><time>2026-04-28T13:26:51.001Z</time></trkpt><trkpt lat="32.6840189927283" lon="-4.7596500659046805"><ele>1476.75</ele><time>2026-04-28T13:26:52.001Z</time></trkpt><trkpt lat="32.68411781880859" lon="-4.759742062246979"><ele>1476.0</ele><time>2026-04-28T13:26:53.001Z</time></trkpt><trkpt lat="32.6842073989253" lon="-4.75983213839573"><ele>1476.0</ele><time>2026-04-28T13:26:54.001Z</time></trkpt><trkpt lat="32.6842870184027" lon="-4.759928501063315"><ele>1476.0</ele><time>2026-04-28T13:26:55.001Z</time></trkpt><trkpt lat="32.68434819240665" lon="-4.760033994955883"><ele>1476.0</ele><time>2026-04-28T13:26:56.001Z</time></trkpt><trkpt lat="32.68440070138942" lon="-4.760140301131438"><ele>1476.0</ele><time>2026-04-28T13:26:57.001Z</time></trkpt><trkpt lat="32.68442208964693" lon="-4.76024800698925"><ele>1476.0</ele><time>2026-04-28T13:26:58.001Z</time></trkpt><trkpt lat="32.68443671465008" lon="-4.760348092415954"><ele>1475.6</ele><time>2026-04-28T13:26:59.001Z</time></trkpt><trkpt lat="32.684465520383604" lon="-4.760468237818819"><ele>1475.1999999999998</ele><time>2026-04-28T13:27:00.001Z</time></trkpt><trkpt lat="32.68450188956751" lon="-4.7605707155866535"><ele>1474.8000000000002</ele><time>2026-04-28T13:27:01.001Z</time></trkpt><trkpt lat="32.68453786557269" lon="-4.760673124443317"><ele>1474.4</ele><time>2026-04-28T13:27:02.001Z</time></trkpt><trkpt lat="32.6845787536764" lon="-4.760805012472434"><ele>1474.0</ele><time>2026-04-28T13:27:03.001Z</time></trkpt><trkpt lat="32.684628298631274" lon="-4.760918395970098"><ele>1474.0</ele><time>2026-04-28T13:27:04.001Z</time></trkpt><trkpt lat="32.684678687262945" lon="-4.761035826939649"><ele>1474.0</ele><time>2026-04-28T13:27:05.001Z</time></trkpt><trkpt lat="32.68511094004702" lon="-4.760906948453064"><ele>1474.0</ele><time>2026-04-28T13:27:06.001Z</time></trkpt><trkpt lat="32.68517552456504" lon="-4.760966823795426"><ele>1474.0</ele><time>2026-04-28T13:27:07.001Z</time></trkpt><trkpt lat="32.68525672525952" lon="-4.761032187267745"><ele>1474.0</ele><time>2026-04-28T13:27:08.001Z</time></trkpt><trkpt lat="32.685345027589975" lon="-4.76110427690082"><ele>1474.0</ele><time>2026-04-28T13:27:09.001Z</time></trkpt><trkpt lat="32.685438526363114" lon="-4.761181184889015"><ele>1474.0</ele><time>2026-04-28T13:27:10.001Z</time></trkpt><trkpt lat="32.68563278203643" lon="-4.7613431862669175"><ele>1473.75</ele><time>2026-04-28T13:27:12.001Z</time></trkpt><trkpt lat="32.685728174612585" lon="-4.761425364231359"><ele>1473.5</ele><time>2026-04-28T13:27:13.001Z</time></trkpt><trkpt lat="32.685821752386154" lon="-4.761508731128071"><ele>1473.25</ele><time>2026-04-28T13:27:14.001Z</time></trkpt><trkpt lat="32.68591070726091" lon="-4.761590226996472"><ele>1473.0</ele><time>2026-04-28T13:27:15.001Z</time></trkpt><trkpt lat="32.68599743441705" lon="-4.7616574263847005"><ele>1473.0</ele><time>2026-04-28T13:27:16.001Z</time></trkpt><trkpt lat="32.686087104409026" lon="-4.76169748112254"><ele>1473.0</ele><time>2026-04-28T13:27:17.001Z</time></trkpt><trkpt lat="32.686175447817206" lon="-4.761726034151814"><ele>1473.0</ele><time>2026-04-28T13:27:18.001Z</time></trkpt><trkpt lat="32.686267020908495" lon="-4.761780603249853"><ele>1473.0</ele><time>2026-04-28T13:27:19.001Z</time></trkpt><trkpt lat="32.68636243938992" lon="-4.7618519187746795"><ele>1473.0</ele><time>2026-04-28T13:27:20.001Z</time></trkpt><trkpt lat="32.68645671804947" lon="-4.761935062229262"><ele>1472.4</ele><time>2026-04-28T13:27:21.001Z</time></trkpt><trkpt lat="32.686544509590696" lon="-4.762024226660229"><ele>1471.8000000000002</ele><time>2026-04-28T13:27:22.001Z</time></trkpt><trkpt lat="32.68663212406937" lon="-4.762100169845104"><ele>1471.2</ele><time>2026-04-28T13:27:23.001Z</time></trkpt><trkpt lat="32.6867177301711" lon="-4.762158546544481"><ele>1470.6</ele><time>2026-04-28T13:27:24.001Z</time></trkpt><trkpt lat="32.68680214686751" lon="-4.762177535097863"><ele>1470.0</ele><time>2026-04-28T13:27:25.001Z</time></trkpt><trkpt lat="32.68689196794207" lon="-4.762177324817279"><ele>1469.8</ele><time>2026-04-28T13:27:26Z</time></trkpt><trkpt lat="32.686981027525775" lon="-4.762203099147026"><ele>1469.6</ele><time>2026-04-28T13:27:27Z</time></trkpt><trkpt lat="32.68706758502449" lon="-4.76226308685714"><ele>1469.4</ele><time>2026-04-28T13:27:28Z</time></trkpt><trkpt lat="32.68715529954822" lon="-4.762341012374994"><ele>1469.2</ele><time>2026-04-28T13:27:29Z</time></trkpt><trkpt lat="32.68724987296415" lon="-4.762429614209807"><ele>1469.0</ele><time>2026-04-28T13:27:30Z</time></trkpt><trkpt lat="32.68735258203305" lon="-4.76252154631832"><ele>1469.0</ele><time>2026-04-28T13:27:31Z</time></trkpt><trkpt lat="32.687461375562634" lon="-4.76261596538482"><ele>1469.0</ele><time>2026-04-28T13:27:32Z</time></trkpt><trkpt lat="32.68757444710788" lon="-4.762713553866706"><ele>1469.0</ele><time>2026-04-28T13:27:33Z</time></trkpt><trkpt lat="32.6876936974227" lon="-4.762817045641874"><ele>1469.0</ele><time>2026-04-28T13:27:34Z</time></trkpt><trkpt lat="32.687816643492525" lon="-4.762919326229212"><ele>1469.0</ele><time>2026-04-28T13:27:35Z</time></trkpt><trkpt lat="32.68794076131347" lon="-4.763020252738868"><ele>1469.0</ele><time>2026-04-28T13:27:36Z</time></trkpt><trkpt lat="32.68805801385874" lon="-4.763121543007148"><ele>1469.0</ele><time>2026-04-28T13:27:37Z</time></trkpt><trkpt lat="32.68817650620076" lon="-4.763223227535928"><ele>1469.0</ele><time>2026-04-28T13:27:38Z</time></trkpt><trkpt lat="32.688296873504854" lon="-4.763321657383295"><ele>1469.0</ele><time>2026-04-28T13:27:39Z</time></trkpt><trkpt lat="32.68841823651851" lon="-4.763420739880952"><ele>1469.0</ele><time>2026-04-28T13:27:40Z</time></trkpt><trkpt lat="32.688533130309956" lon="-4.7635191286041865"><ele>1469.0</ele><time>2026-04-28T13:27:41Z</time></trkpt><trkpt lat="32.688637237359316" lon="-4.763606414682898"><ele>1469.0</ele><time>2026-04-28T13:27:42Z</time></trkpt><trkpt lat="32.68873198865379" lon="-4.763682308178632"><ele>1468.0</ele><time>2026-04-28T13:27:43Z</time></trkpt><trkpt lat="32.688819594336316" lon="-4.76375043714331"><ele>1467.0</ele><time>2026-04-28T13:27:44Z</time></trkpt><trkpt lat="32.68891036896478" lon="-4.7638203073105565"><ele>1466.0</ele><time>2026-04-28T13:27:45Z</time></trkpt><trkpt lat="32.6890003305555" lon="-4.763885434736388"><ele>1465.0</ele><time>2026-04-28T13:27:45.999Z</time></trkpt><trkpt lat="32.68907183674696" lon="-4.763964385480865"><ele>1464.0</ele><time>2026-04-28T13:27:46.999Z</time></trkpt><trkpt lat="32.68914725909045" lon="-4.764026785950074"><ele>1464.0</ele><time>2026-04-28T13:27:47.999Z</time></trkpt><trkpt lat="32.68928113179136" lon="-4.763972403622929"><ele>1464.0</ele><time>2026-04-28T13:27:48.999Z</time></trkpt><trkpt lat="32.68937387294046" lon="-4.763973376296484"><ele>1464.0</ele><time>2026-04-28T13:27:49.999Z</time></trkpt><trkpt lat="32.68946499242322" lon="-4.763970215940225"><ele>1464.0</ele><time>2026-04-28T13:27:50.999Z</time></trkpt><trkpt lat="32.689559574419484" lon="-4.763958431476463"><ele>1464.0</ele><time>2026-04-28T13:27:51.999Z</time></trkpt><trkpt lat="32.68965178605346" lon="-4.76395231994149"><ele>1460.0</ele><time>2026-04-28T13:27:52.999Z</time></trkpt><trkpt lat="32.68974148271759" lon="-4.763943961433419"><ele>1460.0</ele><time>2026-04-28T13:27:53.999Z</time></trkpt><trkpt lat="32.68983148649005" lon="-4.763929842003168"><ele>1460.0</ele><time>2026-04-28T13:27:54.999Z</time></trkpt><trkpt lat="32.68991483570176" lon="-4.763908164587292"><ele>1460.0</ele><time>2026-04-28T13:27:55.997Z</time></trkpt><trkpt lat="32.68999799319611" lon="-4.763885966482709"><ele>1460.0</ele><time>2026-04-28T13:27:56.997Z</time></trkpt></trkseg></trk></gpx>